Thunder radar more information blitzortung!


avis per Pluja more information rain snow radar


Visita la nostra xarxa de llocs de meteo:

Template documentation
and downloads

And another site



Rain From: 17-10-2018 23:00 Until: 18-10-2018 16:59 warning for: Rain Level: Yellow info button

Pagina Historial Weather Underground text

Diari Resum Desembre 2, 2017 Unitats:  Tant    Imperial   Mètric
« Previous Dia
SegĂźent Dia »
Diari Setmana Mensual Anual Personalitzada
  Maxima: Minima: Media:
Temperatura: TemperatureC °F /  -17.8 °C -0.5 °F /  -18.1 °C 4.3 °F /  -15.4 °C
Punt de rosada: DewpointC °F /  -17.8 °C -14.8 °F /  -26 °C -10.1 °F /  -23.4 °C
Humitat: Humidity % 19 % 36 %
Wind Speed: WindSpeedKMH mph /  0 km/h - 6.5 mph /  10.5 km/h
RĂ fegues de vent: WindSpeedGustKMH mph /  0 km/h - -
Vent:- - SW
Pression baro: PressurehPa in /  0 hPa 1009.0 in /  34164.7 hPa -
Precipitacions: 0.0 in /  0 mm    
Historical Graphs
 
 
Dades de taula per Desembre 2, 2017
Temps Temperatura Punt de rosada Pression baro Vent Wind Speed RĂ fegues de vent Humitat Rainfall Rate (Hourly)
TemperatureC °F /  -17.8 °C DewpointC °F /  -17.8 °C PressurehPa in /  0 hPa Calm     Humidity % HourlyPrecipMM in /  0 mm
00:04 2.3 °F /  -16.5 °C -9.0 °F /  -22.8 °C 1013.8 in /  34327.3 hPa WSW 7.4 mph /  11.9 km/h 7.4 mph /  11.9 km/h 43 % 0.0 in /  0 mm
00:15 2.1 °F /  -16.6 °C -9.2 °F /  -22.9 °C 1013.8 in /  34327.3 hPa WSW 8.0 mph /  12.9 km/h 8.0 mph /  12.9 km/h 43 % 0.0 in /  0 mm
00:20 2.2 °F /  -16.6 °C -9.4 °F /  -23 °C 1013.8 in /  34327.3 hPa WSW 3.2 mph /  5.1 km/h 3.2 mph /  5.1 km/h 42 % 0.0 in /  0 mm
00:25 2.0 °F /  -16.7 °C -9.6 °F /  -23.1 °C 1013.8 in /  34327.3 hPa SW 3.2 mph /  5.1 km/h 4.8 mph /  7.7 km/h 42 % 0.0 in /  0 mm
00:30 2.0 °F /  -16.7 °C -9.6 °F /  -23.1 °C 1013.8 in /  34327.3 hPa WSW 3.2 mph /  5.1 km/h 4.8 mph /  7.7 km/h 42 % 0.0 in /  0 mm
00:35 2.0 °F /  -16.7 °C -9.9 °F /  -23.3 °C 1013.8 in /  34327.3 hPa SW 3.2 mph /  5.1 km/h 4.8 mph /  7.7 km/h 41 % 0.0 in /  0 mm
00:40 1.8 °F /  -16.8 °C -10.1 °F /  -23.4 °C 1013.8 in /  34327.3 hPa WSW 3.2 mph /  5.1 km/h 3.2 mph /  5.1 km/h 41 % 0.0 in /  0 mm
00:45 1.7 °F /  -16.8 °C -10.2 °F /  -23.4 °C 1013.8 in /  34327.3 hPa West 1.6 mph /  2.6 km/h 3.2 mph /  5.1 km/h 41 % 0.0 in /  0 mm
00:50 1.7 °F /  -16.8 °C -9.9 °F /  -23.3 °C 1013.8 in /  34327.3 hPa WSW 4.8 mph /  7.7 km/h 4.8 mph /  7.7 km/h 42 % 0.0 in /  0 mm
00:55 1.8 °F /  -16.8 °C -10.1 °F /  -23.4 °C 1013.8 in /  34327.3 hPa WSW 3.2 mph /  5.1 km/h 4.8 mph /  7.7 km/h 41 % 0.0 in /  0 mm
01:00 1.8 °F /  -16.8 °C -10.1 °F /  -23.4 °C 1013.8 in /  34327.3 hPa WSW 1.6 mph /  2.6 km/h 3.2 mph /  5.1 km/h 41 % 0.0 in /  0 mm
01:05 1.6 °F /  -16.9 °C -9.9 °F /  -23.3 °C 1013.8 in /  34327.3 hPa West 4.8 mph /  7.7 km/h 4.8 mph /  7.7 km/h 42 % 0.0 in /  0 mm
01:10 1.7 °F /  -16.8 °C -9.9 °F /  -23.3 °C 1013.8 in /  34327.3 hPa WSW 3.2 mph /  5.1 km/h 6.4 mph /  10.3 km/h 42 % 0.0 in /  0 mm
01:15 1.7 °F /  -16.8 °C -9.9 °F /  -23.3 °C 1012.8 in /  34293.4 hPa WSW 1.6 mph /  2.6 km/h 6.4 mph /  10.3 km/h 42 % 0.0 in /  0 mm
01:25 1.6 °F /  -16.9 °C -9.9 °F /  -23.3 °C 1012.8 in /  34293.4 hPa West 3.2 mph /  5.1 km/h 3.2 mph /  5.1 km/h 42 % 0.0 in /  0 mm
01:30 1.5 °F /  -16.9 °C -10.1 °F /  -23.4 °C 1012.8 in /  34293.4 hPa West 1.6 mph /  2.6 km/h   42 % 0.0 in /  0 mm
01:35 1.4 °F /  -17 °C -10.1 °F /  -23.4 °C 1012.8 in /  34293.4 hPa WSW 3.2 mph /  5.1 km/h 3.2 mph /  5.1 km/h 42 % 0.0 in /  0 mm
01:40 1.4 °F /  -17 °C -10.1 °F /  -23.4 °C 1012.8 in /  34293.4 hPa SW 3.2 mph /  5.1 km/h 3.2 mph /  5.1 km/h 42 % 0.0 in /  0 mm
01:45 1.3 °F /  -17.1 °C -10.2 °F /  -23.4 °C 1012.8 in /  34293.4 hPa Calm   3.2 mph /  5.1 km/h 42 % 0.0 in /  0 mm
01:50 1.2 °F /  -17.1 °C -10.3 °F /  -23.5 °C 1012.8 in /  34293.4 hPa WSW 3.2 mph /  5.1 km/h 6.4 mph /  10.3 km/h 42 % 0.0 in /  0 mm
01:55 1.3 °F /  -17.1 °C -10.2 °F /  -23.4 °C 1012.8 in /  34293.4 hPa West 3.2 mph /  5.1 km/h 6.4 mph /  10.3 km/h 42 % 0.0 in /  0 mm
02:00 1.4 °F /  -17 °C -9.8 °F /  -23.2 °C 1012.8 in /  34293.4 hPa West 4.8 mph /  7.7 km/h 4.8 mph /  7.7 km/h 43 % 0.0 in /  0 mm
02:05 1.3 °F /  -17.1 °C -9.9 °F /  -23.3 °C 1012.8 in /  34293.4 hPa West 3.2 mph /  5.1 km/h 4.8 mph /  7.7 km/h 43 % 0.0 in /  0 mm
02:10 1.3 °F /  -17.1 °C -9.9 °F /  -23.3 °C 1012.8 in /  34293.4 hPa West 1.6 mph /  2.6 km/h 3.2 mph /  5.1 km/h 43 % 0.0 in /  0 mm
02:15 1.3 °F /  -17.1 °C -9.9 °F /  -23.3 °C 1012.8 in /  34293.4 hPa WSW 4.8 mph /  7.7 km/h 4.8 mph /  7.7 km/h 43 % 0.0 in /  0 mm
02:25 1.4 °F /  -17 °C -9.8 °F /  -23.2 °C 1012.8 in /  34293.4 hPa West 3.2 mph /  5.1 km/h 4.8 mph /  7.7 km/h 43 % 0.0 in /  0 mm
02:30 1.3 °F /  -17.1 °C -9.9 °F /  -23.3 °C 1012.8 in /  34293.4 hPa WSW 4.8 mph /  7.7 km/h 4.8 mph /  7.7 km/h 43 % 0.0 in /  0 mm
02:35 1.2 °F /  -17.1 °C -10.0 °F /  -23.3 °C 1012.8 in /  34293.4 hPa WSW 4.8 mph /  7.7 km/h 8.0 mph /  12.9 km/h 43 % 0.0 in /  0 mm
02:40 1.4 °F /  -17 °C -9.8 °F /  -23.2 °C 1012.8 in /  34293.4 hPa WSW 4.8 mph /  7.7 km/h 8.0 mph /  12.9 km/h 43 % 0.0 in /  0 mm
02:45 1.4 °F /  -17 °C -9.8 °F /  -23.2 °C 1012.8 in /  34293.4 hPa West 8.0 mph /  12.9 km/h 8.0 mph /  12.9 km/h 43 % 0.0 in /  0 mm
02:55 1.4 °F /  -17 °C -9.8 °F /  -23.2 °C 1012.8 in /  34293.4 hPa West 8.0 mph /  12.9 km/h 8.0 mph /  12.9 km/h 43 % 0.0 in /  0 mm
03:00 1.4 °F /  -17 °C -9.8 °F /  -23.2 °C 1012.8 in /  34293.4 hPa WSW 9.7 mph /  15.6 km/h 9.7 mph /  15.6 km/h 43 % 0.0 in /  0 mm
03:05 1.4 °F /  -17 °C -9.8 °F /  -23.2 °C 1012.8 in /  34293.4 hPa WSW 4.8 mph /  7.7 km/h 6.4 mph /  10.3 km/h 43 % 0.0 in /  0 mm
03:10 1.4 °F /  -17 °C -9.8 °F /  -23.2 °C 1012.8 in /  34293.4 hPa WSW 4.8 mph /  7.7 km/h 6.4 mph /  10.3 km/h 43 % 0.0 in /  0 mm
03:15 1.3 °F /  -17.1 °C -9.9 °F /  -23.3 °C 1012.8 in /  34293.4 hPa WSW 4.8 mph /  7.7 km/h 4.8 mph /  7.7 km/h 43 % 0.0 in /  0 mm
03:25 1.3 °F /  -17.1 °C -9.9 °F /  -23.3 °C 1012.8 in /  34293.4 hPa SW 3.2 mph /  5.1 km/h 6.4 mph /  10.3 km/h 43 % 0.0 in /  0 mm
03:30 1.3 °F /  -17.1 °C -9.9 °F /  -23.3 °C 1011.7 in /  34256.2 hPa West 4.8 mph /  7.7 km/h 6.4 mph /  10.3 km/h 43 % 0.0 in /  0 mm
03:35 1.2 °F /  -17.1 °C -10.0 °F /  -23.3 °C 1011.7 in /  34256.2 hPa West 3.2 mph /  5.1 km/h 4.8 mph /  7.7 km/h 43 % 0.0 in /  0 mm
03:45 1.2 °F /  -17.1 °C -10.0 °F /  -23.3 °C 1011.7 in /  34256.2 hPa WSW 4.8 mph /  7.7 km/h 6.4 mph /  10.3 km/h 43 % 0.0 in /  0 mm
03:50 1.2 °F /  -17.1 °C -9.7 °F /  -23.2 °C 1011.7 in /  34256.2 hPa WSW 8.0 mph /  12.9 km/h 8.0 mph /  12.9 km/h 44 % 0.0 in /  0 mm
03:55 1.1 °F /  -17.2 °C -9.8 °F /  -23.2 °C 1011.7 in /  34256.2 hPa SW 4.8 mph /  7.7 km/h 6.4 mph /  10.3 km/h 44 % 0.0 in /  0 mm
04:00 1.2 °F /  -17.1 °C -9.7 °F /  -23.2 °C 1011.7 in /  34256.2 hPa WSW 9.7 mph /  15.6 km/h 9.7 mph /  15.6 km/h 44 % 0.0 in /  0 mm
04:05 1.4 °F /  -17 °C -9.6 °F /  -23.1 °C 1011.7 in /  34256.2 hPa WSW 12.9 mph /  20.8 km/h 12.9 mph /  20.8 km/h 44 % 0.0 in /  0 mm
04:10 1.4 °F /  -17 °C -9.6 °F /  -23.1 °C 1011.7 in /  34256.2 hPa WSW 9.7 mph /  15.6 km/h 9.7 mph /  15.6 km/h 44 % 0.0 in /  0 mm
04:15 1.4 °F /  -17 °C -9.3 °F /  -22.9 °C 1011.7 in /  34256.2 hPa WSW 11.3 mph /  18.2 km/h 11.3 mph /  18.2 km/h 45 % 0.0 in /  0 mm
04:20 1.4 °F /  -17 °C -9.3 °F /  -22.9 °C 1011.7 in /  34256.2 hPa WSW 8.0 mph /  12.9 km/h 9.7 mph /  15.6 km/h 45 % 0.0 in /  0 mm
04:25 1.4 °F /  -17 °C -9.3 °F /  -22.9 °C 1011.7 in /  34256.2 hPa West 4.8 mph /  7.7 km/h 6.4 mph /  10.3 km/h 45 % 0.0 in /  0 mm
04:30 1.2 °F /  -17.1 °C -9.4 °F /  -23 °C 1011.7 in /  34256.2 hPa West 4.8 mph /  7.7 km/h 6.4 mph /  10.3 km/h 45 % 0.0 in /  0 mm
04:35 1.1 °F /  -17.2 °C -9.6 °F /  -23.1 °C 1011.7 in /  34256.2 hPa WSW 4.8 mph /  7.7 km/h 8.0 mph /  12.9 km/h 45 % 0.0 in /  0 mm
04:40 1.0 °F /  -17.2 °C -9.3 °F /  -22.9 °C 1011.7 in /  34256.2 hPa West 4.8 mph /  7.7 km/h 8.0 mph /  12.9 km/h 46 % 0.0 in /  0 mm
04:45 1.1 °F /  -17.2 °C -9.3 °F /  -22.9 °C 1011.7 in /  34256.2 hPa West 8.0 mph /  12.9 km/h 8.0 mph /  12.9 km/h 46 % 0.0 in /  0 mm
04:50 1.2 °F /  -17.1 °C -9.2 °F /  -22.9 °C 1011.7 in /  34256.2 hPa West 4.8 mph /  7.7 km/h 8.0 mph /  12.9 km/h 46 % 0.0 in /  0 mm
04:55 1.2 °F /  -17.1 °C -9.2 °F /  -22.9 °C 1011.7 in /  34256.2 hPa WNW 3.2 mph /  5.1 km/h 4.8 mph /  7.7 km/h 46 % 0.0 in /  0 mm
05:00 1.1 °F /  -17.2 °C -9.0 °F /  -22.8 °C 1011.7 in /  34256.2 hPa West 1.6 mph /  2.6 km/h 3.2 mph /  5.1 km/h 47 % 0.0 in /  0 mm
05:05 1.0 °F /  -17.2 °C -9.1 °F /  -22.8 °C 1011.7 in /  34256.2 hPa WSW 3.2 mph /  5.1 km/h 3.2 mph /  5.1 km/h 47 % 0.0 in /  0 mm
05:10 1.0 °F /  -17.2 °C -9.1 °F /  -22.8 °C 1011.7 in /  34256.2 hPa West 1.6 mph /  2.6 km/h 3.2 mph /  5.1 km/h 47 % 0.0 in /  0 mm
05:15 0.7 °F /  -17.4 °C -9.3 °F /  -22.9 °C 1011.7 in /  34256.2 hPa WNW 1.6 mph /  2.6 km/h 3.2 mph /  5.1 km/h 47 % 0.0 in /  0 mm
05:20 0.6 °F /  -17.4 °C -9.4 °F /  -23 °C 1011.7 in /  34256.2 hPa West 1.6 mph /  2.6 km/h 3.2 mph /  5.1 km/h 47 % 0.0 in /  0 mm
05:25 0.5 °F /  -17.5 °C -9.6 °F /  -23.1 °C 1011.7 in /  34256.2 hPa NW 3.2 mph /  5.1 km/h 3.2 mph /  5.1 km/h 47 % 0.0 in /  0 mm
05:30 0.5 °F /  -17.5 °C -9.6 °F /  -23.1 °C 1012.8 in /  34293.4 hPa WNW 1.6 mph /  2.6 km/h 3.2 mph /  5.1 km/h 47 % 0.0 in /  0 mm
05:35 0.5 °F /  -17.5 °C -9.6 °F /  -23.1 °C 1012.8 in /  34293.4 hPa Calm   1.6 mph /  2.6 km/h 47 % 0.0 in /  0 mm
05:40 0.4 °F /  -17.6 °C -9.3 °F /  -22.9 °C 1012.8 in /  34293.4 hPa NNW 1.6 mph /  2.6 km/h 3.2 mph /  5.1 km/h 48 % 0.0 in /  0 mm
05:45 0.4 °F /  -17.6 °C -9.3 °F /  -22.9 °C 1012.8 in /  34293.4 hPa NE 3.2 mph /  5.1 km/h 3.2 mph /  5.1 km/h 48 % 0.0 in /  0 mm
05:50 0.3 °F /  -17.6 °C -9.4 °F /  -23 °C 1012.8 in /  34293.4 hPa NNE 1.6 mph /  2.6 km/h 1.6 mph /  2.6 km/h 48 % 0.0 in /  0 mm
05:55 0.1 °F /  -17.7 °C -9.9 °F /  -23.3 °C 1012.8 in /  34293.4 hPa NW 1.6 mph /  2.6 km/h 3.2 mph /  5.1 km/h 47 % 0.0 in /  0 mm
06:00 0.1 °F /  -17.7 °C -9.9 °F /  -23.3 °C 1013.8 in /  34327.3 hPa NNW 1.6 mph /  2.6 km/h 3.2 mph /  5.1 km/h 47 % 0.0 in /  0 mm
06:05 0.0 °F /  -17.8 °C -9.7 °F /  -23.2 °C 1013.8 in /  34327.3 hPa WNW 1.6 mph /  2.6 km/h 1.6 mph /  2.6 km/h 48 % 0.0 in /  0 mm
06:15 -0.1 °F /  -17.8 °C -9.8 °F /  -23.2 °C 1013.8 in /  34327.3 hPa NNE 1.6 mph /  2.6 km/h 4.8 mph /  7.7 km/h 48 % 0.0 in /  0 mm
06:20 -0.2 °F /  -17.9 °C -9.9 °F /  -23.3 °C 1013.8 in /  34327.3 hPa NNE 3.2 mph /  5.1 km/h 6.4 mph /  10.3 km/h 48 % 0.0 in /  0 mm
06:25 -0.3 °F /  -17.9 °C -10.0 °F /  -23.3 °C 1013.8 in /  34327.3 hPa Calm   6.4 mph /  10.3 km/h 48 % 0.0 in /  0 mm
06:30 -0.5 °F /  -18.1 °C -9.9 °F /  -23.3 °C 1013.8 in /  34327.3 hPa ENE 1.6 mph /  2.6 km/h 4.8 mph /  7.7 km/h 49 % 0.0 in /  0 mm
06:35 -0.5 °F /  -18.1 °C -9.9 °F /  -23.3 °C 1013.8 in /  34327.3 hPa NNE 3.2 mph /  5.1 km/h 3.2 mph /  5.1 km/h 49 % 0.0 in /  0 mm
06:40 -0.5 °F /  -18.1 °C -9.9 °F /  -23.3 °C 1013.8 in /  34327.3 hPa NE 3.2 mph /  5.1 km/h 3.2 mph /  5.1 km/h 49 % 0.0 in /  0 mm
06:45 -0.4 °F /  -18 °C -9.6 °F /  -23.1 °C 1013.8 in /  34327.3 hPa NNE 1.6 mph /  2.6 km/h 8.0 mph /  12.9 km/h 50 % 0.0 in /  0 mm
06:50 -0.4 °F /  -18 °C -9.6 °F /  -23.1 °C 1013.8 in /  34327.3 hPa NNE 1.6 mph /  2.6 km/h 8.0 mph /  12.9 km/h 50 % 0.0 in /  0 mm
06:55 -0.3 °F /  -17.9 °C -9.5 °F /  -23.1 °C 1013.8 in /  34327.3 hPa WNW 1.6 mph /  2.6 km/h 4.8 mph /  7.7 km/h 50 % 0.0 in /  0 mm
07:00 -0.3 °F /  -17.9 °C -9.5 °F /  -23.1 °C 1012.8 in /  34293.4 hPa WSW 1.6 mph /  2.6 km/h 4.8 mph /  7.7 km/h 50 % 0.0 in /  0 mm
07:05 -0.1 °F /  -17.8 °C -9.3 °F /  -22.9 °C 1012.8 in /  34293.4 hPa West 3.2 mph /  5.1 km/h   50 % 0.0 in /  0 mm
07:10 -0.1 °F /  -17.8 °C -9.3 °F /  -22.9 °C 1012.8 in /  34293.4 hPa West 3.2 mph /  5.1 km/h 3.2 mph /  5.1 km/h 50 % 0.0 in /  0 mm
07:19 -0.1 °F /  -17.8 °C -9.3 °F /  -22.9 °C 1013.8 in /  34327.3 hPa ENE 3.9 mph /  6.3 km/h 3.9 mph /  6.3 km/h 50 % 0.0 in /  0 mm
07:20 -0.1 °F /  -17.8 °C -9.3 °F /  -22.9 °C 1013.8 in /  34327.3 hPa ENE 3.9 mph /  6.3 km/h 3.9 mph /  6.3 km/h 50 % 0.0 in /  0 mm
07:25 -0.2 °F /  -17.9 °C -9.1 °F /  -22.8 °C 1013.8 in /  34327.3 hPa NE 3.7 mph /  6 km/h 3.9 mph /  6.3 km/h 51 % 0.0 in /  0 mm
07:30 -0.4 °F /  -18 °C -9.3 °F /  -22.9 °C 1013.8 in /  34327.3 hPa East 2.6 mph /  4.2 km/h 2.6 mph /  4.2 km/h 51 % 0.0 in /  0 mm
07:35 -0.4 °F /  -18 °C -9.3 °F /  -22.9 °C 1013.8 in /  34327.3 hPa Calm     51 % 0.0 in /  0 mm
07:40 -0.4 °F /  -18 °C -9.3 °F /  -22.9 °C 1013.8 in /  34327.3 hPa WNW 1.9 mph /  3.1 km/h   51 % 0.0 in /  0 mm
07:50 -0.1 °F /  -17.8 °C -9.1 °F /  -22.8 °C 1013.8 in /  34327.3 hPa West 3.7 mph /  6 km/h 3.7 mph /  6 km/h 51 % 0.0 in /  0 mm
08:00 0.0 °F /  -17.8 °C -8.9 °F /  -22.7 °C 1013.8 in /  34327.3 hPa ENE 2.6 mph /  4.2 km/h 2.6 mph /  4.2 km/h 51 % 0.0 in /  0 mm
08:15 0.1 °F /  -17.7 °C -8.8 °F /  -22.7 °C 1012.8 in /  34293.4 hPa NNW 1.9 mph /  3.1 km/h 1.9 mph /  3.1 km/h 51 % 0.0 in /  0 mm
08:20 0.1 °F /  -17.7 °C -8.8 °F /  -22.7 °C 1012.8 in /  34293.4 hPa West 3.7 mph /  6 km/h   51 % 0.0 in /  0 mm
08:25 0.3 °F /  -17.6 °C -8.7 °F /  -22.6 °C 1012.8 in /  34293.4 hPa WSW 3.9 mph /  6.3 km/h 3.9 mph /  6.3 km/h 51 % 0.0 in /  0 mm
08:35 0.4 °F /  -17.6 °C -8.6 °F /  -22.6 °C 1012.8 in /  34293.4 hPa WSW 5.6 mph /  9 km/h 5.6 mph /  9 km/h 51 % 0.0 in /  0 mm
08:40 0.5 °F /  -17.5 °C -8.5 °F /  -22.5 °C 1012.8 in /  34293.4 hPa WSW 5.6 mph /  9 km/h 5.6 mph /  9 km/h 51 % 0.0 in /  0 mm
08:45 0.7 °F /  -17.4 °C -8.3 °F /  -22.4 °C 1012.8 in /  34293.4 hPa West 7.4 mph /  11.9 km/h 7.4 mph /  11.9 km/h 51 % 0.0 in /  0 mm
08:50 1.0 °F /  -17.2 °C -8.0 °F /  -22.2 °C 1012.8 in /  34293.4 hPa SSW 2.6 mph /  4.2 km/h 2.6 mph /  4.2 km/h 51 % 0.0 in /  0 mm
08:55 1.2 °F /  -17.1 °C -7.8 °F /  -22.1 °C 1012.8 in /  34293.4 hPa SW 3.7 mph /  6 km/h 3.7 mph /  6 km/h 51 % 0.0 in /  0 mm
09:00 1.5 °F /  -16.9 °C -7.6 °F /  -22 °C 1013.8 in /  34327.3 hPa WSW 3.7 mph /  6 km/h 3.7 mph /  6 km/h 51 % 0.0 in /  0 mm
09:05 1.5 °F /  -16.9 °C -7.6 °F /  -22 °C 1013.8 in /  34327.3 hPa WNW 7.6 mph /  12.2 km/h 7.6 mph /  12.2 km/h 51 % 0.0 in /  0 mm
09:10 1.7 °F /  -16.8 °C -7.4 °F /  -21.9 °C 1013.8 in /  34327.3 hPa SW 9.3 mph /  15 km/h 9.3 mph /  15 km/h 51 % 0.0 in /  0 mm
09:15 1.9 °F /  -16.7 °C -7.2 °F /  -21.8 °C 1013.8 in /  34327.3 hPa SSW 6.4 mph /  10.3 km/h 6.4 mph /  10.3 km/h 51 % 0.0 in /  0 mm
09:25 2.5 °F /  -16.4 °C -6.9 °F /  -21.6 °C 1013.8 in /  34327.3 hPa WSW 13.0 mph /  20.9 km/h 13.0 mph /  20.9 km/h 50 % 0.0 in /  0 mm
09:30 2.7 °F /  -16.3 °C -6.7 °F /  -21.5 °C 1013.8 in /  34327.3 hPa WSW 11.1 mph /  17.9 km/h 11.1 mph /  17.9 km/h 50 % 0.0 in /  0 mm
09:40 3.1 °F /  -16.1 °C -6.3 °F /  -21.3 °C 1013.8 in /  34327.3 hPa WNW 8.7 mph /  14 km/h 8.7 mph /  14 km/h 50 % 0.0 in /  0 mm
09:45 3.4 °F /  -15.9 °C -6.3 °F /  -21.3 °C 1013.8 in /  34327.3 hPa WSW 5.6 mph /  9 km/h 5.6 mph /  9 km/h 49 % 0.0 in /  0 mm
09:55 3.7 °F /  -15.7 °C -6.3 °F /  -21.3 °C 1013.8 in /  34327.3 hPa WSW 18.5 mph /  29.8 km/h 18.5 mph /  29.8 km/h 48 % 0.0 in /  0 mm
10:00 3.9 °F /  -15.6 °C -6.4 °F /  -21.3 °C 1013.8 in /  34327.3 hPa WSW 13.0 mph /  20.9 km/h 13.0 mph /  20.9 km/h 47 % 0.0 in /  0 mm
10:25 4.8 °F /  -15.1 °C -6.2 °F /  -21.2 °C 1013.8 in /  34327.3 hPa SW 5.6 mph /  9 km/h 5.6 mph /  9 km/h 45 % 0.0 in /  0 mm
10:30 4.9 °F /  -15.1 °C -6.1 °F /  -21.2 °C 1012.8 in /  34293.4 hPa WSW 11.4 mph /  18.3 km/h 11.4 mph /  18.3 km/h 45 % 0.0 in /  0 mm
10:40 5.1 °F /  -14.9 °C -6.5 °F /  -21.4 °C 1012.8 in /  34293.4 hPa WSW 15.8 mph /  25.4 km/h 15.8 mph /  25.4 km/h 43 % 0.0 in /  0 mm
10:45 5.3 °F /  -14.8 °C -6.3 °F /  -21.3 °C 1013.8 in /  34327.3 hPa SW 14.0 mph /  22.5 km/h 14.0 mph /  22.5 km/h 43 % 0.0 in /  0 mm
10:50 5.6 °F /  -14.7 °C -6.3 °F /  -21.3 °C 1013.8 in /  34327.3 hPa West 9.3 mph /  15 km/h 9.3 mph /  15 km/h 42 % 0.0 in /  0 mm
11:00 5.9 °F /  -14.5 °C -6.4 °F /  -21.3 °C 1012.8 in /  34293.4 hPa West 14.8 mph /  23.8 km/h 14.8 mph /  23.8 km/h 41 % 0.0 in /  0 mm
11:05 6.1 °F /  -14.4 °C -6.5 °F /  -21.4 °C 1012.8 in /  34293.4 hPa SW 13.0 mph /  20.9 km/h 13.0 mph /  20.9 km/h 40 % 0.0 in /  0 mm
11:10 6.4 °F /  -14.2 °C -6.2 °F /  -21.2 °C 1012.8 in /  34293.4 hPa WSW 9.5 mph /  15.3 km/h 9.5 mph /  15.3 km/h 40 % 0.0 in /  0 mm
11:15 6.3 °F /  -14.3 °C -7.0 °F /  -21.7 °C 1013.8 in /  34327.3 hPa West 16.7 mph /  26.9 km/h 16.7 mph /  26.9 km/h 38 % 0.0 in /  0 mm
11:20 6.4 °F /  -14.2 °C -6.9 °F /  -21.6 °C 1013.8 in /  34327.3 hPa West 16.7 mph /  26.9 km/h 16.7 mph /  26.9 km/h 38 % 0.0 in /  0 mm
11:25 6.8 °F /  -14 °C -6.6 °F /  -21.4 °C 1013.8 in /  34327.3 hPa South 9.0 mph /  14.5 km/h 9.0 mph /  14.5 km/h 38 % 0.0 in /  0 mm
11:30 6.6 °F /  -14.1 °C -6.7 °F /  -21.5 °C 1012.8 in /  34293.4 hPa West 13.0 mph /  20.9 km/h 13.0 mph /  20.9 km/h 38 % 0.0 in /  0 mm
11:35 6.4 °F /  -14.2 °C -7.3 °F /  -21.8 °C 1012.8 in /  34293.4 hPa WSW 12.2 mph /  19.6 km/h 12.2 mph /  19.6 km/h 37 % 0.0 in /  0 mm
11:40 6.3 °F /  -14.3 °C -7.7 °F /  -22.1 °C 1012.8 in /  34293.4 hPa West 15.8 mph /  25.4 km/h 15.8 mph /  25.4 km/h 36 % 0.0 in /  0 mm
11:45 6.4 °F /  -14.2 °C -7.6 °F /  -22 °C 1012.8 in /  34293.4 hPa SW 11.1 mph /  17.9 km/h 11.1 mph /  17.9 km/h 36 % 0.0 in /  0 mm
11:50 6.5 °F /  -14.2 °C -7.5 °F /  -21.9 °C 1012.8 in /  34293.4 hPa WSW 9.3 mph /  15 km/h 9.3 mph /  15 km/h 36 % 0.0 in /  0 mm
11:55 6.6 °F /  -14.1 °C -7.8 °F /  -22.1 °C 1012.8 in /  34293.4 hPa SW 11.1 mph /  17.9 km/h 11.1 mph /  17.9 km/h 35 % 0.0 in /  0 mm
12:00 6.8 °F /  -14 °C -7.6 °F /  -22 °C 1012.8 in /  34293.4 hPa WNW 13.0 mph /  20.9 km/h 13.0 mph /  20.9 km/h 35 % 0.0 in /  0 mm
12:05 6.9 °F /  -13.9 °C -7.6 °F /  -22 °C 1012.8 in /  34293.4 hPa WSW 14.8 mph /  23.8 km/h 14.8 mph /  23.8 km/h 35 % 0.0 in /  0 mm
12:08 6.9 °F /  -13.9 °C -7.6 °F /  -22 °C 1012.8 in /  34293.4 hPa WSW 16.7 mph /  26.9 km/h 16.7 mph /  26.9 km/h 35 % 0.0 in /  0 mm
12:13 7.1 °F /  -13.8 °C -7.7 °F /  -22.1 °C 1012.8 in /  34293.4 hPa NNW 16.9 mph /  27.2 km/h 16.9 mph /  27.2 km/h 34 % 0.0 in /  0 mm
12:18 7.2 °F /  -13.8 °C -8.1 °F /  -22.3 °C 1011.7 in /  34256.2 hPa SW 11.1 mph /  17.9 km/h 11.1 mph /  17.9 km/h 33 % 0.0 in /  0 mm
12:23 7.3 °F /  -13.7 °C -7.9 °F /  -22.2 °C 1011.7 in /  34256.2 hPa WNW 9.3 mph /  15 km/h 9.3 mph /  15 km/h 33 % 0.0 in /  0 mm
12:28 7.2 °F /  -13.8 °C -8.1 °F /  -22.3 °C 1011.7 in /  34256.2 hPa West 12.2 mph /  19.6 km/h 12.2 mph /  19.6 km/h 33 % 0.0 in /  0 mm
12:33 7.2 °F /  -13.8 °C -8.4 °F /  -22.4 °C 1011.7 in /  34256.2 hPa West 14.8 mph /  23.8 km/h 14.8 mph /  23.8 km/h 32 % 0.0 in /  0 mm
12:38 7.3 °F /  -13.7 °C -8.3 °F /  -22.4 °C 1011.7 in /  34256.2 hPa NW 9.3 mph /  15 km/h 9.3 mph /  15 km/h 32 % 0.0 in /  0 mm
12:43 7.7 °F /  -13.5 °C -8.0 °F /  -22.2 °C 1011.7 in /  34256.2 hPa West 9.3 mph /  15 km/h 9.3 mph /  15 km/h 32 % 0.0 in /  0 mm
12:58 8.2 °F /  -13.2 °C -7.9 °F /  -22.2 °C 1011.7 in /  34256.2 hPa WSW 13.0 mph /  20.9 km/h 13.0 mph /  20.9 km/h 31 % 0.0 in /  0 mm
13:08 8.4 °F /  -13.1 °C -7.8 °F /  -22.1 °C 1011.7 in /  34256.2 hPa NNW 9.3 mph /  15 km/h 9.3 mph /  15 km/h 31 % 0.0 in /  0 mm
13:13 8.7 °F /  -12.9 °C -7.5 °F /  -21.9 °C 1011.7 in /  34256.2 hPa WSW 20.4 mph /  32.8 km/h 20.4 mph /  32.8 km/h 31 % 0.0 in /  0 mm
13:18 8.6 °F /  -13 °C -8.1 °F /  -22.3 °C 1010.7 in /  34222.3 hPa SW 18.5 mph /  29.8 km/h 18.5 mph /  29.8 km/h 30 % 0.0 in /  0 mm
13:23 8.8 °F /  -12.9 °C -7.8 °F /  -22.1 °C 1010.7 in /  34222.3 hPa SSW 11.4 mph /  18.3 km/h 11.4 mph /  18.3 km/h 30 % 0.0 in /  0 mm
13:33 9.0 °F /  -12.8 °C -7.7 °F /  -22.1 °C 1010.0 in /  34198.6 hPa SW 13.0 mph /  20.9 km/h 13.0 mph /  20.9 km/h 30 % 0.0 in /  0 mm
13:38 9.4 °F /  -12.6 °C -7.3 °F /  -21.8 °C 1010.0 in /  34198.6 hPa West 18.5 mph /  29.8 km/h 18.5 mph /  29.8 km/h 30 % 0.0 in /  0 mm
13:43 9.4 °F /  -12.6 °C -7.8 °F /  -22.1 °C 1010.0 in /  34198.6 hPa NW 7.4 mph /  11.9 km/h 7.4 mph /  11.9 km/h 29 % 0.0 in /  0 mm
13:48 9.6 °F /  -12.4 °C -7.2 °F /  -21.8 °C 1010.0 in /  34198.6 hPa West 11.9 mph /  19.2 km/h 11.9 mph /  19.2 km/h 30 % 0.0 in /  0 mm
13:53 9.5 °F /  -12.5 °C -7.2 °F /  -21.8 °C 1010.0 in /  34198.6 hPa West 9.3 mph /  15 km/h 9.3 mph /  15 km/h 30 % 0.0 in /  0 mm
13:58 9.2 °F /  -12.7 °C -8.4 °F /  -22.4 °C 1010.0 in /  34198.6 hPa WNW 13.0 mph /  20.9 km/h 13.0 mph /  20.9 km/h 28 % 0.0 in /  0 mm
14:13 9.0 °F /  -12.8 °C -9.5 °F /  -23.1 °C 1010.0 in /  34198.6 hPa WSW 16.7 mph /  26.9 km/h 16.7 mph /  26.9 km/h 26 % 0.0 in /  0 mm
14:18 9.0 °F /  -12.8 °C -9.5 °F /  -23.1 °C 1010.7 in /  34222.3 hPa SW 11.1 mph /  17.9 km/h 11.1 mph /  17.9 km/h 26 % 0.0 in /  0 mm
14:23 8.9 °F /  -12.8 °C -10.1 °F /  -23.4 °C 1010.7 in /  34222.3 hPa WSW 9.7 mph /  15.6 km/h 9.7 mph /  15.6 km/h 25 % 0.0 in /  0 mm
14:29 8.9 °F /  -12.8 °C -10.1 °F /  -23.4 °C 1010.0 in /  34198.6 hPa WSW 15.6 mph /  25.1 km/h 15.6 mph /  25.1 km/h 25 % 0.0 in /  0 mm
14:34 8.8 °F /  -12.9 °C -11.2 °F /  -24 °C 1010.0 in /  34198.6 hPa West 9.3 mph /  15 km/h 9.3 mph /  15 km/h 23 % 0.0 in /  0 mm
14:39 8.9 °F /  -12.8 °C -10.6 °F /  -23.7 °C 1010.0 in /  34198.6 hPa WNW 9.3 mph /  15 km/h 9.3 mph /  15 km/h 24 % 0.0 in /  0 mm
14:44 8.9 °F /  -12.8 °C -10.6 °F /  -23.7 °C 1010.0 in /  34198.6 hPa West 9.3 mph /  15 km/h 9.3 mph /  15 km/h 24 % 0.0 in /  0 mm
14:49 8.9 °F /  -12.8 °C -10.6 °F /  -23.7 °C 1010.0 in /  34198.6 hPa West 11.1 mph /  17.9 km/h 11.1 mph /  17.9 km/h 24 % 0.0 in /  0 mm
14:54 8.8 °F /  -12.9 °C -10.7 °F /  -23.7 °C 1010.0 in /  34198.6 hPa WNW 7.4 mph /  11.9 km/h 7.4 mph /  11.9 km/h 24 % 0.0 in /  0 mm
14:59 8.7 °F /  -12.9 °C -11.3 °F /  -24.1 °C 1009.0 in /  34164.7 hPa West 11.1 mph /  17.9 km/h 11.1 mph /  17.9 km/h 23 % 0.0 in /  0 mm
15:04 8.7 °F /  -12.9 °C -11.3 °F /  -24.1 °C 1009.0 in /  34164.7 hPa WSW 13.0 mph /  20.9 km/h 13.0 mph /  20.9 km/h 23 % 0.0 in /  0 mm
15:09 8.6 °F /  -13 °C -12.6 °F /  -24.8 °C 1009.0 in /  34164.7 hPa WSW 18.5 mph /  29.8 km/h 18.5 mph /  29.8 km/h 21 % 0.0 in /  0 mm
15:19 8.5 °F /  -13.1 °C -12.6 °F /  -24.8 °C 1010.0 in /  34198.6 hPa West 9.3 mph /  15 km/h 9.3 mph /  15 km/h 21 % 0.0 in /  0 mm
15:24 8.4 °F /  -13.1 °C -12.7 °F /  -24.8 °C 1010.0 in /  34198.6 hPa WSW 19.0 mph /  30.6 km/h 19.0 mph /  30.6 km/h 21 % 0.0 in /  0 mm
15:29 8.4 °F /  -13.1 °C -13.3 °F /  -25.2 °C 1010.0 in /  34198.6 hPa WNW 9.3 mph /  15 km/h 9.3 mph /  15 km/h 20 % 0.0 in /  0 mm
15:39 8.4 °F /  -13.1 °C -12.7 °F /  -24.8 °C 1010.0 in /  34198.6 hPa WSW 13.0 mph /  20.9 km/h 13.0 mph /  20.9 km/h 21 % 0.0 in /  0 mm
15:44 8.4 °F /  -13.1 °C -12.7 °F /  -24.8 °C 1010.0 in /  34198.6 hPa West 9.5 mph /  15.3 km/h 9.5 mph /  15.3 km/h 21 % 0.0 in /  0 mm
15:49 8.4 °F /  -13.1 °C -13.3 °F /  -25.2 °C 1010.0 in /  34198.6 hPa West 14.8 mph /  23.8 km/h 14.8 mph /  23.8 km/h 20 % 0.0 in /  0 mm
15:59 8.3 °F /  -13.2 °C -13.4 °F /  -25.2 °C 1009.0 in /  34164.7 hPa NNW 13.0 mph /  20.9 km/h 13.0 mph /  20.9 km/h 20 % 0.0 in /  0 mm
16:04 8.2 °F /  -13.2 °C -13.5 °F /  -25.3 °C 1009.0 in /  34164.7 hPa SSW 9.3 mph /  15 km/h 9.3 mph /  15 km/h 20 % 0.0 in /  0 mm
16:09 8.2 °F /  -13.2 °C -13.5 °F /  -25.3 °C 1009.0 in /  34164.7 hPa ESE 9.3 mph /  15 km/h 9.3 mph /  15 km/h 20 % 0.0 in /  0 mm
16:14 8.1 °F /  -13.3 °C -13.6 °F /  -25.3 °C 1010.0 in /  34198.6 hPa SW 6.9 mph /  11.1 km/h 6.9 mph /  11.1 km/h 20 % 0.0 in /  0 mm
16:29 8.0 °F /  -13.3 °C -13.7 °F /  -25.4 °C 1010.7 in /  34222.3 hPa SSW 9.3 mph /  15 km/h 9.3 mph /  15 km/h 20 % 0.0 in /  0 mm
16:34 8.0 °F /  -13.3 °C -13.7 °F /  -25.4 °C 1010.7 in /  34222.3 hPa WSW 9.3 mph /  15 km/h 9.3 mph /  15 km/h 20 % 0.0 in /  0 mm
16:39 7.9 °F /  -13.4 °C -13.7 °F /  -25.4 °C 1010.7 in /  34222.3 hPa West 11.1 mph /  17.9 km/h 11.1 mph /  17.9 km/h 20 % 0.0 in /  0 mm
16:44 7.9 °F /  -13.4 °C -13.7 °F /  -25.4 °C 1010.7 in /  34222.3 hPa SSW 4.7 mph /  7.6 km/h 4.7 mph /  7.6 km/h 20 % 0.0 in /  0 mm
16:54 7.8 °F /  -13.4 °C -13.8 °F /  -25.4 °C 1010.7 in /  34222.3 hPa WSW 7.4 mph /  11.9 km/h 7.4 mph /  11.9 km/h 20 % 0.0 in /  0 mm
16:59 7.8 °F /  -13.4 °C -13.8 °F /  -25.4 °C 1010.7 in /  34222.3 hPa West 3.7 mph /  6 km/h 3.7 mph /  6 km/h 20 % 0.0 in /  0 mm
17:04 7.8 °F /  -13.4 °C -13.8 °F /  -25.4 °C 1010.7 in /  34222.3 hPa WNW 3.7 mph /  6 km/h 3.7 mph /  6 km/h 20 % 0.0 in /  0 mm
17:14 7.8 °F /  -13.4 °C -13.8 °F /  -25.4 °C 1011.7 in /  34256.2 hPa NNE 7.4 mph /  11.9 km/h 7.4 mph /  11.9 km/h 20 % 0.0 in /  0 mm
17:19 7.7 °F /  -13.5 °C -13.9 °F /  -25.5 °C 1011.7 in /  34256.2 hPa WNW 5.6 mph /  9 km/h 5.6 mph /  9 km/h 20 % 0.0 in /  0 mm
17:24 7.6 °F /  -13.6 °C -14.0 °F /  -25.6 °C 1011.7 in /  34256.2 hPa West 3.7 mph /  6 km/h 3.7 mph /  6 km/h 20 % 0.0 in /  0 mm
17:29 7.5 °F /  -13.6 °C -14.1 °F /  -25.6 °C 1011.7 in /  34256.2 hPa NNW 4.2 mph /  6.8 km/h 4.2 mph /  6.8 km/h 20 % 0.0 in /  0 mm
17:34 7.5 °F /  -13.6 °C -14.1 °F /  -25.6 °C 1011.7 in /  34256.2 hPa NW 7.4 mph /  11.9 km/h 7.4 mph /  11.9 km/h 20 % 0.0 in /  0 mm
17:44 7.3 °F /  -13.7 °C -14.8 °F /  -26 °C 1011.7 in /  34256.2 hPa NE 4.2 mph /  6.8 km/h 4.2 mph /  6.8 km/h 19 % 0.0 in /  0 mm
17:54 7.1 °F /  -13.8 °C -14.4 °F /  -25.8 °C 1011.7 in /  34256.2 hPa NNE 5.6 mph /  9 km/h 5.6 mph /  9 km/h 20 % 0.0 in /  0 mm
18:00 7.1 °F /  -13.8 °C -14.4 °F /  -25.8 °C 1012.8 in /  34293.4 hPa NNE 3.7 mph /  6 km/h 3.7 mph /  6 km/h 20 % 0.0 in /  0 mm
18:07 7.0 °F /  -13.9 °C -14.5 °F /  -25.8 °C 1012.8 in /  34293.4 hPa NNE 3.7 mph /  6 km/h 3.7 mph /  6 km/h 20 % 0.0 in /  0 mm
18:17 6.9 °F /  -13.9 °C -14.6 °F /  -25.9 °C 1012.8 in /  34293.4 hPa NE 5.8 mph /  9.3 km/h 5.8 mph /  9.3 km/h 20 % 0.0 in /  0 mm
18:22 7.0 °F /  -13.9 °C -14.5 °F /  -25.8 °C 1012.8 in /  34293.4 hPa ENE 3.7 mph /  6 km/h 3.7 mph /  6 km/h 20 % 0.0 in /  0 mm
18:27 6.9 °F /  -13.9 °C -14.6 °F /  -25.9 °C 1012.8 in /  34293.4 hPa NE 6.9 mph /  11.1 km/h 6.9 mph /  11.1 km/h 20 % 0.0 in /  0 mm
18:37 6.8 °F /  -14 °C -14.7 °F /  -25.9 °C 1012.8 in /  34293.4 hPa NNE 3.7 mph /  6 km/h 3.7 mph /  6 km/h 20 % 0.0 in /  0 mm
18:42 6.6 °F /  -14.1 °C -14.2 °F /  -25.7 °C 1012.8 in /  34293.4 hPa NNE 4.7 mph /  7.6 km/h 4.7 mph /  7.6 km/h 21 % 0.0 in /  0 mm
18:48 6.7 °F /  -14.1 °C -13.6 °F /  -25.3 °C 1013.8 in /  34327.3 hPa ENE 7.4 mph /  11.9 km/h 7.4 mph /  11.9 km/h 22 % 0.0 in /  0 mm
18:53 6.7 °F /  -14.1 °C -13.6 °F /  -25.3 °C 1013.8 in /  34327.3 hPa NNE 7.4 mph /  11.9 km/h 7.4 mph /  11.9 km/h 22 % 0.0 in /  0 mm
19:03 6.6 °F /  -14.1 °C -13.1 °F /  -25.1 °C 1013.8 in /  34327.3 hPa NNE 3.7 mph /  6 km/h 3.7 mph /  6 km/h 23 % 0.0 in /  0 mm
19:08 6.5 °F /  -14.2 °C -12.7 °F /  -24.8 °C 1013.8 in /  34327.3 hPa ENE 1.9 mph /  3.1 km/h   24 % 0.0 in /  0 mm
19:18 6.5 °F /  -14.2 °C -12.2 °F /  -24.6 °C 1013.8 in /  34327.3 hPa NNE 1.9 mph /  3.1 km/h 1.9 mph /  3.1 km/h 25 % 0.0 in /  0 mm
19:23 6.5 °F /  -14.2 °C -12.2 °F /  -24.6 °C 1013.8 in /  34327.3 hPa Calm     25 % 0.0 in /  0 mm
19:28 6.4 °F /  -14.2 °C -12.2 °F /  -24.6 °C 1013.8 in /  34327.3 hPa Calm     25 % 0.0 in /  0 mm
19:38 6.4 °F /  -14.2 °C -11.8 °F /  -24.3 °C 1013.8 in /  34327.3 hPa Calm     26 % 0.0 in /  0 mm
19:43 6.4 °F /  -14.2 °C -11.8 °F /  -24.3 °C 1013.8 in /  34327.3 hPa NNE 1.9 mph /  3.1 km/h   26 % 0.0 in /  0 mm
19:48 6.3 °F /  -14.3 °C -11.8 °F /  -24.3 °C 1014.8 in /  34361.1 hPa NNE 3.9 mph /  6.3 km/h 3.9 mph /  6.3 km/h 26 % 0.0 in /  0 mm
19:53 6.3 °F /  -14.3 °C -11.8 °F /  -24.3 °C 1014.8 in /  34361.1 hPa SW 4.2 mph /  6.8 km/h 4.2 mph /  6.8 km/h 26 % 0.0 in /  0 mm
19:58 6.2 °F /  -14.3 °C -11.4 °F /  -24.1 °C 1014.8 in /  34361.1 hPa South 4.2 mph /  6.8 km/h 4.2 mph /  6.8 km/h 27 % 0.0 in /  0 mm
20:03 6.3 °F /  -14.3 °C -11.4 °F /  -24.1 °C 1014.8 in /  34361.1 hPa South 3.7 mph /  6 km/h 3.7 mph /  6 km/h 27 % 0.0 in /  0 mm
20:08 6.3 °F /  -14.3 °C -11.4 °F /  -24.1 °C 1014.8 in /  34361.1 hPa South 5.6 mph /  9 km/h 5.6 mph /  9 km/h 27 % 0.0 in /  0 mm
20:13 6.3 °F /  -14.3 °C -11.4 °F /  -24.1 °C 1014.8 in /  34361.1 hPa West 2.6 mph /  4.2 km/h 2.6 mph /  4.2 km/h 27 % 0.0 in /  0 mm
20:28 6.3 °F /  -14.3 °C -10.9 °F /  -23.8 °C 1014.8 in /  34361.1 hPa Calm     28 % 0.0 in /  0 mm
20:33 6.3 °F /  -14.3 °C -10.9 °F /  -23.8 °C 1014.8 in /  34361.1 hPa NNE 1.9 mph /  3.1 km/h 1.9 mph /  3.1 km/h 28 % 0.0 in /  0 mm
20:38 6.2 °F /  -14.3 °C -10.6 °F /  -23.7 °C 1014.8 in /  34361.1 hPa Calm     29 % 0.0 in /  0 mm
20:43 6.2 °F /  -14.3 °C -10.6 °F /  -23.7 °C 1014.8 in /  34361.1 hPa SW 3.7 mph /  6 km/h 3.7 mph /  6 km/h 29 % 0.0 in /  0 mm
20:48 6.1 °F /  -14.4 °C -10.7 °F /  -23.7 °C 1015.8 in /  34395 hPa SW 1.9 mph /  3.1 km/h   29 % 0.0 in /  0 mm
20:58 6.1 °F /  -14.4 °C -10.7 °F /  -23.7 °C 1015.8 in /  34395 hPa NW 1.9 mph /  3.1 km/h   29 % 0.0 in /  0 mm
21:03 6.2 °F /  -14.3 °C -10.6 °F /  -23.7 °C 1015.8 in /  34395 hPa Calm     29 % 0.0 in /  0 mm
21:08 6.1 °F /  -14.4 °C -10.7 °F /  -23.7 °C 1015.8 in /  34395 hPa NW 1.9 mph /  3.1 km/h 1.9 mph /  3.1 km/h 29 % 0.0 in /  0 mm
21:18 6.0 °F /  -14.4 °C -10.3 °F /  -23.5 °C 1015.8 in /  34395 hPa Calm     30 % 0.0 in /  0 mm
21:23 6.0 °F /  -14.4 °C -10.3 °F /  -23.5 °C 1015.8 in /  34395 hPa Calm     30 % 0.0 in /  0 mm
21:28 5.9 °F /  -14.5 °C -10.4 °F /  -23.6 °C 1015.8 in /  34395 hPa Calm     30 % 0.0 in /  0 mm
21:38 5.8 °F /  -14.6 °C -11.3 °F /  -24.1 °C 1014.8 in /  34361.1 hPa Calm     28 % 0.0 in /  0 mm
21:48 5.8 °F /  -14.6 °C -10.9 °F /  -23.8 °C 1015.8 in /  34395 hPa WSW 3.7 mph /  6 km/h 3.7 mph /  6 km/h 29 % 0.0 in /  0 mm
21:53 5.7 °F /  -14.6 °C -11.0 °F /  -23.9 °C 1015.8 in /  34395 hPa WSW 3.7 mph /  6 km/h 3.7 mph /  6 km/h 29 % 0.0 in /  0 mm
21:58 5.6 °F /  -14.7 °C -11.1 °F /  -23.9 °C 1015.8 in /  34395 hPa WSW 3.7 mph /  6 km/h 3.7 mph /  6 km/h 29 % 0.0 in /  0 mm
22:03 5.6 °F /  -14.7 °C -11.5 °F /  -24.2 °C 1015.8 in /  34395 hPa West 7.4 mph /  11.9 km/h 7.4 mph /  11.9 km/h 28 % 0.0 in /  0 mm
22:08 5.8 °F /  -14.6 °C -11.8 °F /  -24.3 °C 1015.8 in /  34395 hPa West 9.0 mph /  14.5 km/h 9.0 mph /  14.5 km/h 27 % 0.0 in /  0 mm
22:13 5.9 °F /  -14.5 °C -11.7 °F /  -24.3 °C 1015.8 in /  34395 hPa WSW 5.6 mph /  9 km/h 5.6 mph /  9 km/h 27 % 0.0 in /  0 mm
22:23 5.8 °F /  -14.6 °C -12.3 °F /  -24.6 °C 1015.8 in /  34395 hPa West 3.7 mph /  6 km/h 4.2 mph /  6.8 km/h 26 % 0.0 in /  0 mm
22:28 5.8 °F /  -14.6 °C -12.3 °F /  -24.6 °C 1015.8 in /  34395 hPa WSW 3.9 mph /  6.3 km/h 3.9 mph /  6.3 km/h 26 % 0.0 in /  0 mm
22:29 5.8 °F /  -14.6 °C -12.3 °F /  -24.6 °C 1014.8 in /  34361.1 hPa WNW 5.6 mph /  9 km/h 5.6 mph /  9 km/h 26 % 0.0 in /  0 mm
22:44 5.8 °F /  -14.6 °C -12.3 °F /  -24.6 °C 1015.8 in /  34395 hPa WSW 9.3 mph /  15 km/h 9.3 mph /  15 km/h 26 % 0.0 in /  0 mm
22:49 5.9 °F /  -14.5 °C -12.7 °F /  -24.8 °C 1015.8 in /  34395 hPa WSW 7.4 mph /  11.9 km/h 7.4 mph /  11.9 km/h 25 % 0.0 in /  0 mm
22:59 5.8 °F /  -14.6 °C -12.3 °F /  -24.6 °C 1015.8 in /  34395 hPa WNW 13.0 mph /  20.9 km/h 13.0 mph /  20.9 km/h 26 % 0.0 in /  0 mm
23:09 5.7 °F /  -14.6 °C -12.3 °F /  -24.6 °C 1015.8 in /  34395 hPa WSW 7.4 mph /  11.9 km/h 7.4 mph /  11.9 km/h 26 % 0.0 in /  0 mm
23:14 5.7 °F /  -14.6 °C -12.8 °F /  -24.9 °C 1015.8 in /  34395 hPa WSW 4.7 mph /  7.6 km/h 4.7 mph /  7.6 km/h 25 % 0.0 in /  0 mm
23:19 5.7 °F /  -14.6 °C -12.3 °F /  -24.6 °C 1015.8 in /  34395 hPa SW 5.6 mph /  9 km/h 5.6 mph /  9 km/h 26 % 0.0 in /  0 mm
23:24 5.7 °F /  -14.6 °C -12.3 °F /  -24.6 °C 1015.8 in /  34395 hPa WSW 7.4 mph /  11.9 km/h 7.4 mph /  11.9 km/h 26 % 0.0 in /  0 mm
23:35 5.8 °F /  -14.6 °C -12.8 °F /  -24.9 °C 1015.8 in /  34395 hPa West 3.2 mph /  5.1 km/h 11.3 mph /  18.2 km/h 25 % 0.0 in /  0 mm
23:40 5.9 °F /  -14.5 °C -12.7 °F /  -24.8 °C 1015.8 in /  34395 hPa WSW 14.8 mph /  23.8 km/h 14.8 mph /  23.8 km/h 25 % 0.0 in /  0 mm
23:45 5.9 °F /  -14.5 °C -12.7 °F /  -24.8 °C 1015.8 in /  34395 hPa West 9.3 mph /  15 km/h 9.3 mph /  15 km/h 25 % 0.0 in /  0 mm
23:50 5.8 °F /  -14.6 °C -12.8 °F /  -24.9 °C 1015.8 in /  34395 hPa WSW 4.8 mph /  7.7 km/h 12.9 mph /  20.8 km/h 25 % 0.0 in /  0 mm
Meteo Sesrovires
Elogis d' Weather Underground - 1.75 mb

Guio original per  Jim McMurry - jmcmurry@mwt.net Adaptat per a la plantilla per  Wim van der Kuil - Leuven-Template.eu

Trobareu la nostra informacio del temps tambe a:

Weather Underground

AWEKAS